sensor_id;sensor_type;location;lat;lon;timestamp;pressure;altitude;pressure_sealevel;temperature;humidity
41102;BME280;26845;50.190;19.178;2022-08-24T00:01:29;98829.92;;;19.71;95.21
41102;BME280;26845;50.190;19.178;2022-08-24T00:03:55;98835.55;;;19.71;94.75
41102;BME280;26845;50.190;19.178;2022-08-24T00:06:23;98847.38;;;19.67;94.91
41102;BME280;26845;50.190;19.178;2022-08-24T00:08:50;98845.81;;;19.70;95.13
41102;BME280;26845;50.190;19.178;2022-08-24T00:11:24;98841.80;;;19.71;94.94
41102;BME280;26845;50.190;19.178;2022-08-24T00:13:48;98841.04;;;19.74;95.12
41102;BME280;26845;50.190;19.178;2022-08-24T00:16:15;98842.73;;;19.79;95.05
41102;BME280;26845;50.190;19.178;2022-08-24T00:18:43;98841.74;;;19.81;94.96
41102;BME280;26845;50.190;19.178;2022-08-24T00:21:11;98842.00;;;19.72;94.59
41102;BME280;26845;50.190;19.178;2022-08-24T00:23:38;98839.95;;;19.59;94.52
41102;BME280;26845;50.190;19.178;2022-08-24T00:26:05;98839.02;;;19.51;94.77
41102;BME280;26845;50.190;19.178;2022-08-24T00:28:31;98838.30;;;19.45;94.88
41102;BME280;26845;50.190;19.178;2022-08-24T00:30:58;98840.31;;;19.44;95.08
41102;BME280;26845;50.190;19.178;2022-08-24T00:33:25;98833.83;;;19.44;95.13
41102;BME280;26845;50.190;19.178;2022-08-24T00:35:51;98834.52;;;19.47;95.33
41102;BME280;26845;50.190;19.178;2022-08-24T00:38:18;98835.98;;;19.50;95.26
41102;BME280;26845;50.190;19.178;2022-08-24T00:40:45;98833.38;;;19.51;95.27
41102;BME280;26845;50.190;19.178;2022-08-24T00:43:15;98836.50;;;19.46;95.04
41102;BME280;26845;50.190;19.178;2022-08-24T00:46:32;98830.15;;;19.40;95.14
41102;BME280;26845;50.190;19.178;2022-08-24T00:48:26;98831.95;;;19.38;95.22
41102;BME280;26845;50.190;19.178;2022-08-24T00:50:55;98830.91;;;19.37;95.34
41102;BME280;26845;50.190;19.178;2022-08-24T00:53:30;98835.89;;;19.24;95.42
41102;BME280;26845;50.190;19.178;2022-08-24T00:55:56;98827.86;;;19.13;95.45
41102;BME280;26845;50.190;19.178;2022-08-24T00:58:28;98831.33;;;19.06;95.77
41102;BME280;26845;50.190;19.178;2022-08-24T01:00:58;98837.86;;;19.00;95.96
41102;BME280;26845;50.190;19.178;2022-08-24T01:03:25;98844.39;;;18.95;96.18
41102;BME280;26845;50.190;19.178;2022-08-24T01:05:53;98839.58;;;18.85;96.43
41102;BME280;26845;50.190;19.178;2022-08-24T01:08:20;98842.48;;;18.79;96.85
41102;BME280;26845;50.190;19.178;2022-08-24T01:10:48;98848.05;;;18.76;97.04
41102;BME280;26845;50.190;19.178;2022-08-24T01:13:17;98838.77;;;18.75;97.20
41102;BME280;26845;50.190;19.178;2022-08-24T01:15:45;98849.87;;;18.78;97.33
41102;BME280;26845;50.190;19.178;2022-08-24T01:18:19;98851.28;;;18.78;97.49
41102;BME280;26845;50.190;19.178;2022-08-24T01:23:50;98845.30;;;18.79;97.88
41102;BME280;26845;50.190;19.178;2022-08-24T01:26:21;98841.35;;;18.84;98.00
41102;BME280;26845;50.190;19.178;2022-08-24T01:29:00;98844.86;;;18.87;98.05
41102;BME280;26845;50.190;19.178;2022-08-24T01:31:35;98843.45;;;18.87;98.17
41102;BME280;26845;50.190;19.178;2022-08-24T01:34:02;98845.01;;;18.84;98.37
41102;BME280;26845;50.190;19.178;2022-08-24T01:36:33;98852.40;;;18.83;98.46
41102;BME280;26845;50.190;19.178;2022-08-24T01:42:00;98841.51;;;18.91;98.73
41102;BME280;26845;50.190;19.178;2022-08-24T01:44:28;98842.63;;;18.96;98.98
41102;BME280;26845;50.190;19.178;2022-08-24T01:46:58;98843.88;;;18.99;98.89
41102;BME280;26845;50.190;19.178;2022-08-24T01:49:25;98848.02;;;19.05;99.08
41102;BME280;26845;50.190;19.178;2022-08-24T01:51:54;98845.33;;;19.12;99.21
41102;BME280;26845;50.190;19.178;2022-08-24T01:54:21;98839.39;;;19.17;99.24
41102;BME280;26845;50.190;19.178;2022-08-24T01:56:48;98833.67;;;19.23;99.19
41102;BME280;26845;50.190;19.178;2022-08-24T01:59:14;98837.80;;;19.29;99.41
41102;BME280;26845;50.190;19.178;2022-08-24T02:01:45;98839.56;;;19.38;99.39
41102;BME280;26845;50.190;19.178;2022-08-24T02:04:14;98841.48;;;19.43;99.32
41102;BME280;26845;50.190;19.178;2022-08-24T02:06:41;98851.04;;;19.48;99.32
41102;BME280;26845;50.190;19.178;2022-08-24T02:09:10;98851.18;;;19.55;99.39
41102;BME280;26845;50.190;19.178;2022-08-24T02:11:37;98855.67;;;19.60;99.19
41102;BME280;26845;50.190;19.178;2022-08-24T02:14:04;98865.78;;;19.61;98.73
41102;BME280;26845;50.190;19.178;2022-08-24T02:16:32;98861.35;;;19.50;98.50
41102;BME280;26845;50.190;19.178;2022-08-24T02:18:59;98861.00;;;19.42;98.67
41102;BME280;26845;50.190;19.178;2022-08-24T02:21:25;98854.34;;;19.31;98.89
41102;BME280;26845;50.190;19.178;2022-08-24T02:23:52;98848.41;;;19.26;99.21
41102;BME280;26845;50.190;19.178;2022-08-24T02:26:18;98851.38;;;19.24;99.18
41102;BME280;26845;50.190;19.178;2022-08-24T02:28:45;98851.17;;;19.23;99.27
41102;BME280;26845;50.190;19.178;2022-08-24T02:31:16;98850.30;;;19.19;99.41
41102;BME280;26845;50.190;19.178;2022-08-24T02:33:43;98847.09;;;19.20;99.67
41102;BME280;26845;50.190;19.178;2022-08-24T02:36:10;98849.55;;;19.22;99.61
41102;BME280;26845;50.190;19.178;2022-08-24T02:38:37;98853.55;;;19.21;99.77
41102;BME280;26845;50.190;19.178;2022-08-24T02:41:04;98860.02;;;19.21;99.82
41102;BME280;26845;50.190;19.178;2022-08-24T02:43:31;98863.40;;;19.21;99.74
41102;BME280;26845;50.190;19.178;2022-08-24T02:45:58;98866.97;;;19.18;99.83
41102;BME280;26845;50.190;19.178;2022-08-24T02:48:24;98870.32;;;19.14;100.00
41102;BME280;26845;50.190;19.178;2022-08-24T02:50:51;98863.78;;;19.09;100.00
41102;BME280;26845;50.190;19.178;2022-08-24T02:53:19;98875.14;;;19.13;100.00
41102;BME280;26845;50.190;19.178;2022-08-24T02:55:47;98874.01;;;19.18;100.00
41102;BME280;26845;50.190;19.178;2022-08-24T02:58:14;98865.41;;;19.20;100.00
41102;BME280;26845;50.190;19.178;2022-08-24T03:00:43;98864.98;;;19.18;100.00
41102;BME280;26845;50.190;19.178;2022-08-24T03:03:11;98865.70;;;19.15;100.00
41102;BME280;26845;50.190;19.178;2022-08-24T03:05:39;98861.81;;;19.10;100.00
41102;BME280;26845;50.190;19.178;2022-08-24T03:08:09;98862.91;;;19.05;100.00
41102;BME280;26845;50.190;19.178;2022-08-24T03:10:35;98867.82;;;18.99;100.00
41102;BME280;26845;50.190;19.178;2022-08-24T03:13:02;98872.41;;;18.97;100.00
41102;BME280;26845;50.190;19.178;2022-08-24T03:15:32;98867.30;;;18.93;100.00
41102;BME280;26845;50.190;19.178;2022-08-24T03:17:59;98871.53;;;18.93;100.00
41102;BME280;26845;50.190;19.178;2022-08-24T03:20:27;98876.50;;;18.90;100.00
41102;BME280;26845;50.190;19.178;2022-08-24T03:22:54;98886.71;;;18.88;100.00
41102;BME280;26845;50.190;19.178;2022-08-24T03:25:21;98884.55;;;18.92;100.00
41102;BME280;26845;50.190;19.178;2022-08-24T03:27:50;98888.84;;;18.95;100.00
41102;BME280;26845;50.190;19.178;2022-08-24T03:30:18;98886.63;;;18.95;100.00
41102;BME280;26845;50.190;19.178;2022-08-24T03:32:44;98883.81;;;18.95;100.00
41102;BME280;26845;50.190;19.178;2022-08-24T03:35:12;98886.88;;;18.96;100.00
41102;BME280;26845;50.190;19.178;2022-08-24T03:37:39;98891.30;;;18.97;100.00
41102;BME280;26845;50.190;19.178;2022-08-24T03:40:06;98901.83;;;19.00;100.00
41102;BME280;26845;50.190;19.178;2022-08-24T03:42:34;98899.31;;;19.04;100.00
41102;BME280;26845;50.190;19.178;2022-08-24T03:45:01;98896.87;;;19.13;100.00
41102;BME280;26845;50.190;19.178;2022-08-24T03:47:27;98887.22;;;19.14;100.00
41102;BME280;26845;50.190;19.178;2022-08-24T03:49:54;98888.18;;;19.12;100.00
41102;BME280;26845;50.190;19.178;2022-08-24T03:52:21;98888.72;;;19.07;100.00
41102;BME280;26845;50.190;19.178;2022-08-24T03:54:48;98880.11;;;19.00;100.00
41102;BME280;26845;50.190;19.178;2022-08-24T03:57:14;98884.33;;;19.00;100.00
41102;BME280;26845;50.190;19.178;2022-08-24T03:59:44;98891.02;;;19.02;100.00
41102;BME280;26845;50.190;19.178;2022-08-24T04:02:10;98894.95;;;19.07;100.00
41102;BME280;26845;50.190;19.178;2022-08-24T04:04:37;98887.66;;;19.06;100.00
41102;BME280;26845;50.190;19.178;2022-08-24T04:07:04;98882.77;;;19.03;100.00
41102;BME280;26845;50.190;19.178;2022-08-24T04:09:30;98879.81;;;19.05;100.00
41102;BME280;26845;50.190;19.178;2022-08-24T04:11:57;98876.70;;;19.10;100.00
41102;BME280;26845;50.190;19.178;2022-08-24T04:14:24;98864.09;;;19.14;100.00
41102;BME280;26845;50.190;19.178;2022-08-24T04:16:50;98869.78;;;19.18;100.00
41102;BME280;26845;50.190;19.178;2022-08-24T04:19:17;98876.41;;;19.16;100.00
41102;BME280;26845;50.190;19.178;2022-08-24T04:21:43;98873.08;;;19.10;100.00
41102;BME280;26845;50.190;19.178;2022-08-24T04:24:10;98881.58;;;19.04;100.00
41102;BME280;26845;50.190;19.178;2022-08-24T04:26:38;98884.99;;;19.03;100.00
41102;BME280;26845;50.190;19.178;2022-08-24T04:29:06;98890.63;;;19.03;100.00
41102;BME280;26845;50.190;19.178;2022-08-24T04:31:35;98886.19;;;19.02;100.00
41102;BME280;26845;50.190;19.178;2022-08-24T04:34:02;98894.70;;;19.06;100.00
41102;BME280;26845;50.190;19.178;2022-08-24T04:36:30;98897.45;;;19.02;100.00
41102;BME280;26845;50.190;19.178;2022-08-24T04:38:57;98891.61;;;19.01;100.00
41102;BME280;26845;50.190;19.178;2022-08-24T04:41:26;98893.44;;;19.03;100.00
41102;BME280;26845;50.190;19.178;2022-08-24T04:43:52;98896.20;;;19.00;100.00
41102;BME280;26845;50.190;19.178;2022-08-24T04:46:20;98898.34;;;18.97;100.00
41102;BME280;26845;50.190;19.178;2022-08-24T04:48:47;98889.83;;;18.93;100.00
41102;BME280;26845;50.190;19.178;2022-08-24T04:51:15;98886.35;;;18.90;100.00
41102;BME280;26845;50.190;19.178;2022-08-24T04:53:43;98885.88;;;18.98;100.00
41102;BME280;26845;50.190;19.178;2022-08-24T04:56:14;98887.75;;;19.00;100.00
41102;BME280;26845;50.190;19.178;2022-08-24T04:58:45;98887.45;;;19.05;100.00
41102;BME280;26845;50.190;19.178;2022-08-24T05:01:13;98885.06;;;19.17;100.00
41102;BME280;26845;50.190;19.178;2022-08-24T05:03:45;98878.75;;;19.23;100.00
41102;BME280;26845;50.190;19.178;2022-08-24T05:06:14;98869.48;;;19.23;100.00
41102;BME280;26845;50.190;19.178;2022-08-24T05:08:42;98867.30;;;19.13;100.00
41102;BME280;26845;50.190;19.178;2022-08-24T05:11:12;98864.11;;;19.04;100.00
41102;BME280;26845;50.190;19.178;2022-08-24T05:13:39;98868.40;;;19.08;100.00
41102;BME280;26845;50.190;19.178;2022-08-24T05:16:07;98879.91;;;19.32;100.00
41102;BME280;26845;50.190;19.178;2022-08-24T05:18:35;98879.65;;;19.70;100.00
41102;BME280;26845;50.190;19.178;2022-08-24T05:21:11;98880.28;;;20.09;100.00
41102;BME280;26845;50.190;19.178;2022-08-24T05:23:37;98878.84;;;20.32;100.00
41102;BME280;26845;50.190;19.178;2022-08-24T05:28:35;98887.13;;;20.48;100.00
41102;BME280;26845;50.190;19.178;2022-08-24T05:31:10;98883.13;;;20.49;100.00
41102;BME280;26845;50.190;19.178;2022-08-24T05:33:38;98887.94;;;20.49;100.00
41102;BME280;26845;50.190;19.178;2022-08-24T05:36:13;98892.41;;;20.36;100.00
41102;BME280;26845;50.190;19.178;2022-08-24T05:38:35;98891.75;;;20.33;100.00
41102;BME280;26845;50.190;19.178;2022-08-24T05:41:03;98899.25;;;20.35;100.00
41102;BME280;26845;50.190;19.178;2022-08-24T05:43:30;98891.31;;;20.44;100.00
41102;BME280;26845;50.190;19.178;2022-08-24T05:45:57;98891.55;;;20.72;100.00
41102;BME280;26845;50.190;19.178;2022-08-24T05:48:24;98887.09;;;20.88;100.00
41102;BME280;26845;50.190;19.178;2022-08-24T05:50:52;98889.67;;;20.83;100.00
41102;BME280;26845;50.190;19.178;2022-08-24T05:53:20;98892.20;;;20.62;99.89
41102;BME280;26845;50.190;19.178;2022-08-24T05:55:46;98885.02;;;20.41;100.00
41102;BME280;26845;50.190;19.178;2022-08-24T05:58:13;98888.86;;;20.43;100.00
41102;BME280;26845;50.190;19.178;2022-08-24T06:00:39;98887.77;;;20.51;100.00
41102;BME280;26845;50.190;19.178;2022-08-24T06:03:06;98880.26;;;20.59;100.00
41102;BME280;26845;50.190;19.178;2022-08-24T06:05:37;98882.88;;;20.58;100.00
41102;BME280;26845;50.190;19.178;2022-08-24T06:08:04;98886.83;;;20.66;100.00
41102;BME280;26845;50.190;19.178;2022-08-24T06:10:31;98889.13;;;20.74;100.00
41102;BME280;26845;50.190;19.178;2022-08-24T06:12:58;98892.02;;;20.78;100.00
41102;BME280;26845;50.190;19.178;2022-08-24T06:15:25;98897.49;;;20.97;100.00
41102;BME280;26845;50.190;19.178;2022-08-24T06:17:53;98902.61;;;21.18;100.00
41102;BME280;26845;50.190;19.178;2022-08-24T06:20:19;98903.89;;;21.24;100.00
41102;BME280;26845;50.190;19.178;2022-08-24T06:22:50;98896.81;;;21.38;100.00
41102;BME280;26845;50.190;19.178;2022-08-24T06:25:20;98905.36;;;21.45;100.00
41102;BME280;26845;50.190;19.178;2022-08-24T06:28:06;98907.03;;;21.49;100.00
41102;BME280;26845;50.190;19.178;2022-08-24T06:30:35;98906.08;;;21.55;100.00
41102;BME280;26845;50.190;19.178;2022-08-24T06:33:05;98911.33;;;21.56;99.33
41102;BME280;26845;50.190;19.178;2022-08-24T06:35:33;98912.72;;;21.53;99.15
41102;BME280;26845;50.190;19.178;2022-08-24T06:38:04;98919.58;;;21.52;99.51
41102;BME280;26845;50.190;19.178;2022-08-24T06:40:33;98919.44;;;21.58;99.64
41102;BME280;26845;50.190;19.178;2022-08-24T06:43:02;98926.86;;;21.73;99.89
41102;BME280;26845;50.190;19.178;2022-08-24T06:45:29;98920.68;;;21.81;99.25
41102;BME280;26845;50.190;19.178;2022-08-24T06:47:56;98917.44;;;21.83;98.92
41102;BME280;26845;50.190;19.178;2022-08-24T06:50:23;98925.55;;;21.84;98.70
41102;BME280;26845;50.190;19.178;2022-08-24T06:52:50;98919.09;;;21.84;98.50
41102;BME280;26845;50.190;19.178;2022-08-24T06:55:16;98916.66;;;21.86;98.31
41102;BME280;26845;50.190;19.178;2022-08-24T06:57:44;98919.64;;;21.79;97.26
41102;BME280;26845;50.190;19.178;2022-08-24T07:00:13;98917.65;;;21.80;98.28
41102;BME280;26845;50.190;19.178;2022-08-24T07:02:40;98918.30;;;21.87;97.97
41102;BME280;26845;50.190;19.178;2022-08-24T07:05:07;98914.72;;;21.93;97.99
41102;BME280;26845;50.190;19.178;2022-08-24T07:07:37;98918.44;;;22.01;98.00
41102;BME280;26845;50.190;19.178;2022-08-24T07:10:04;98916.23;;;22.04;96.80
41102;BME280;26845;50.190;19.178;2022-08-24T07:12:34;98918.98;;;21.97;97.09
41102;BME280;26845;50.190;19.178;2022-08-24T07:15:06;98922.48;;;22.00;97.19
41102;BME280;26845;50.190;19.178;2022-08-24T07:17:30;98926.92;;;22.01;96.74
41102;BME280;26845;50.190;19.178;2022-08-24T07:19:56;98921.64;;;21.99;96.90
41102;BME280;26845;50.190;19.178;2022-08-24T07:22:23;98918.16;;;21.93;96.05
41102;BME280;26845;50.190;19.178;2022-08-24T07:24:49;98925.23;;;21.93;96.64
41102;BME280;26845;50.190;19.178;2022-08-24T07:27:18;98922.59;;;21.94;96.33
41102;BME280;26845;50.190;19.178;2022-08-24T07:29:52;98917.95;;;21.92;96.18
41102;BME280;26845;50.190;19.178;2022-08-24T07:32:22;98916.31;;;21.91;96.25
41102;BME280;26845;50.190;19.178;2022-08-24T07:34:59;98917.38;;;21.96;96.63
41102;BME280;26845;50.190;19.178;2022-08-24T07:37:23;98919.59;;;21.96;95.79
41102;BME280;26845;50.190;19.178;2022-08-24T07:39:50;98923.61;;;21.92;95.62
41102;BME280;26845;50.190;19.178;2022-08-24T07:42:16;98927.02;;;21.91;95.79
41102;BME280;26845;50.190;19.178;2022-08-24T07:44:43;98928.23;;;21.90;95.68
41102;BME280;26845;50.190;19.178;2022-08-24T07:47:09;98927.45;;;21.93;96.10
41102;BME280;26845;50.190;19.178;2022-08-24T07:49:36;98935.79;;;21.99;96.06
41102;BME280;26845;50.190;19.178;2022-08-24T07:52:02;98941.68;;;22.00;95.32
41102;BME280;26845;50.190;19.178;2022-08-24T07:54:31;98946.73;;;22.01;95.62
41102;BME280;26845;50.190;19.178;2022-08-24T07:56:58;98948.58;;;22.03;95.16
41102;BME280;26845;50.190;19.178;2022-08-24T07:59:25;98961.26;;;21.99;94.74
41102;BME280;26845;50.190;19.178;2022-08-24T08:01:52;98959.18;;;21.93;94.39
41102;BME280;26845;50.190;19.178;2022-08-24T08:04:21;98964.01;;;21.89;94.79
41102;BME280;26845;50.190;19.178;2022-08-24T08:06:50;98966.43;;;21.90;94.95
41102;BME280;26845;50.190;19.178;2022-08-24T08:09:18;98962.64;;;21.96;95.37
41102;BME280;26845;50.190;19.178;2022-08-24T08:11:44;98956.46;;;22.04;95.75
41102;BME280;26845;50.190;19.178;2022-08-24T08:14:11;98962.78;;;22.10;95.73
41102;BME280;26845;50.190;19.178;2022-08-24T08:16:40;98962.60;;;22.13;95.07
41102;BME280;26845;50.190;19.178;2022-08-24T08:19:06;98970.81;;;22.05;94.26
41102;BME280;26845;50.190;19.178;2022-08-24T08:21:33;98971.16;;;21.99;93.82
41102;BME280;26845;50.190;19.178;2022-08-24T08:24:18;98964.95;;;21.83;93.31
41102;BME280;26845;50.190;19.178;2022-08-24T08:26:47;98964.11;;;21.62;93.74
41102;BME280;26845;50.190;19.178;2022-08-24T08:29:17;98961.62;;;21.57;94.42
41102;BME280;26845;50.190;19.178;2022-08-24T08:31:44;98964.28;;;21.60;94.44
41102;BME280;26845;50.190;19.178;2022-08-24T08:34:11;98972.45;;;21.68;94.74
41102;BME280;26845;50.190;19.178;2022-08-24T08:36:39;98969.31;;;21.77;94.66
41102;BME280;26845;50.190;19.178;2022-08-24T08:39:07;98972.98;;;21.77;93.49
41102;BME280;26845;50.190;19.178;2022-08-24T08:44:18;98978.05;;;21.61;93.62
41102;BME280;26845;50.190;19.178;2022-08-24T08:50:02;98982.46;;;21.59;93.84
41102;BME280;26845;50.190;19.178;2022-08-24T08:55:28;98980.10;;;21.64;94.29
41102;BME280;26845;50.190;19.178;2022-08-24T09:00:40;98986.41;;;21.88;94.18
41102;BME280;26845;50.190;19.178;2022-08-24T09:05:54;98989.23;;;22.08;93.92
41102;BME280;26845;50.190;19.178;2022-08-24T09:08:47;98984.92;;;22.18;93.83
41102;BME280;26845;50.190;19.178;2022-08-24T09:13:56;98976.59;;;22.39;94.05
41102;BME280;26845;50.190;19.178;2022-08-24T09:16:47;98975.69;;;22.49;93.94
41102;BME280;26845;50.190;19.178;2022-08-24T09:22:30;98977.83;;;22.66;93.44
41102;BME280;26845;50.190;19.178;2022-08-24T09:25:03;98981.13;;;22.75;93.15
41102;BME280;26845;50.190;19.178;2022-08-24T09:27:45;98976.52;;;22.84;93.19
41102;BME280;26845;50.190;19.178;2022-08-24T09:30:20;98978.13;;;22.81;92.26
41102;BME280;26845;50.190;19.178;2022-08-24T09:33:08;98983.79;;;22.81;92.50
41102;BME280;26845;50.190;19.178;2022-08-24T09:41:19;98969.38;;;23.04;91.69
41102;BME280;26845;50.190;19.178;2022-08-24T10:15:07;98963.78;;;23.22;90.05
41102;BME280;26845;50.190;19.178;2022-08-24T10:20:33;98963.22;;;23.30;90.27
41102;BME280;26845;50.190;19.178;2022-08-24T10:26:12;98959.83;;;23.41;89.18
41102;BME280;26845;50.190;19.178;2022-08-24T10:32:05;98963.08;;;23.40;89.39
41102;BME280;26845;50.190;19.178;2022-08-24T10:34:53;98962.89;;;23.46;88.84
41102;BME280;26845;50.190;19.178;2022-08-24T10:40:29;98957.13;;;23.88;89.06
41102;BME280;26845;50.190;19.178;2022-08-24T10:43:34;98947.23;;;24.13;88.93
41102;BME280;26845;50.190;19.178;2022-08-24T10:53:56;98954.55;;;24.42;87.92
41102;BME280;26845;50.190;19.178;2022-08-24T11:02:03;98954.22;;;25.13;85.55
41102;BME280;26845;50.190;19.178;2022-08-24T11:04:34;98958.36;;;25.52;86.85
41102;BME280;26845;50.190;19.178;2022-08-24T11:15:24;98951.83;;;26.48;84.55
41102;BME280;26845;50.190;19.178;2022-08-24T11:17:57;98949.73;;;26.97;83.12
41102;BME280;26845;50.190;19.178;2022-08-24T11:20:38;98945.83;;;27.22;82.53
41102;BME280;26845;50.190;19.178;2022-08-24T11:23:09;98947.38;;;27.26;80.59
41102;BME280;26845;50.190;19.178;2022-08-24T11:25:38;98946.17;;;27.27;79.33
41102;BME280;26845;50.190;19.178;2022-08-24T11:28:40;98943.05;;;26.96;80.77
41102;BME280;26845;50.190;19.178;2022-08-24T11:31:19;98944.95;;;27.06;80.85
41102;BME280;26845;50.190;19.178;2022-08-24T11:33:55;98944.72;;;27.08;80.31
41102;BME280;26845;50.190;19.178;2022-08-24T11:36:19;98937.68;;;27.20;79.25
41102;BME280;26845;50.190;19.178;2022-08-24T11:38:49;98938.12;;;27.19;79.81
41102;BME280;26845;50.190;19.178;2022-08-24T11:41:37;98936.69;;;27.15;78.99
41102;BME280;26845;50.190;19.178;2022-08-24T11:44:16;98943.26;;;27.16;79.61
41102;BME280;26845;50.190;19.178;2022-08-24T11:55:17;98953.09;;;27.07;77.88
41102;BME280;26845;50.190;19.178;2022-08-24T12:00:42;98949.97;;;27.13;78.79
41102;BME280;26845;50.190;19.178;2022-08-24T12:05:54;98938.94;;;27.80;78.12
41102;BME280;26845;50.190;19.178;2022-08-24T12:13:47;98939.17;;;28.79;75.09
41102;BME280;26845;50.190;19.178;2022-08-24T12:18:58;98940.20;;;29.12;75.24
41102;BME280;26845;50.190;19.178;2022-08-24T12:21:30;98938.44;;;29.39;75.11
41102;BME280;26845;50.190;19.178;2022-08-24T12:24:02;98938.50;;;29.55;73.88
41102;BME280;26845;50.190;19.178;2022-08-24T12:26:39;98943.14;;;29.57;72.27
41102;BME280;26845;50.190;19.178;2022-08-24T12:31:56;98941.44;;;29.79;68.60
41102;BME280;26845;50.190;19.178;2022-08-24T12:42:49;98932.42;;;29.61;67.96
41102;BME280;26845;50.190;19.178;2022-08-24T12:45:23;98927.66;;;29.26;70.06
41102;BME280;26845;50.190;19.178;2022-08-24T12:47:57;98931.12;;;29.06;70.50
41102;BME280;26845;50.190;19.178;2022-08-24T12:59:43;98924.73;;;30.02;69.93
41102;BME280;26845;50.190;19.178;2022-08-24T13:01:34;98916.50;;;30.04;69.85
41102;BME280;26845;50.190;19.178;2022-08-24T13:04:11;98915.12;;;30.29;69.79
41102;BME280;26845;50.190;19.178;2022-08-24T13:06:45;98914.86;;;30.40;69.44
41102;BME280;26845;50.190;19.178;2022-08-24T13:09:15;98913.05;;;30.38;69.50
41102;BME280;26845;50.190;19.178;2022-08-24T13:11:44;98921.22;;;30.31;68.91
41102;BME280;26845;50.190;19.178;2022-08-24T13:19:32;98924.56;;;30.01;68.77
41102;BME280;26845;50.190;19.178;2022-08-24T13:24:41;98928.92;;;29.81;68.95
41102;BME280;26845;50.190;19.178;2022-08-24T13:29:42;98927.67;;;29.74;68.08
41102;BME280;26845;50.190;19.178;2022-08-24T13:32:16;98922.37;;;29.73;68.37
41102;BME280;26845;50.190;19.178;2022-08-24T13:34:51;98920.83;;;29.68;67.52
41102;BME280;26845;50.190;19.178;2022-08-24T13:37:20;98908.05;;;29.73;68.21
41102;BME280;26845;50.190;19.178;2022-08-24T13:39:54;98902.86;;;29.76;68.18
41102;BME280;26845;50.190;19.178;2022-08-24T13:45:23;98886.96;;;30.16;67.10
41102;BME280;26845;50.190;19.178;2022-08-24T14:09:35;98868.39;;;29.35;64.58
41102;BME280;26845;50.190;19.178;2022-08-24T14:23:26;98862.35;;;29.21;66.43
41102;BME280;26845;50.190;19.178;2022-08-24T14:34:41;98856.22;;;28.59;66.02
41102;BME280;26845;50.190;19.178;2022-08-24T14:39:47;98856.41;;;28.48;66.29
41102;BME280;26845;50.190;19.178;2022-08-24T14:45:08;98853.88;;;28.19;66.22
41102;BME280;26845;50.190;19.178;2022-08-24T14:50:11;98850.53;;;28.12;66.65
41102;BME280;26845;50.190;19.178;2022-08-24T14:52:41;98852.00;;;28.09;66.72
41102;BME280;26845;50.190;19.178;2022-08-24T14:55:29;98854.75;;;28.04;66.99
41102;BME280;26845;50.190;19.178;2022-08-24T15:06:19;98873.02;;;27.83;66.53
41102;BME280;26845;50.190;19.178;2022-08-24T15:08:46;98880.84;;;27.79;66.58
41102;BME280;26845;50.190;19.178;2022-08-24T15:11:17;98878.73;;;27.83;66.75
41102;BME280;26845;50.190;19.178;2022-08-24T15:13:56;98874.67;;;27.96;67.19
41102;BME280;26845;50.190;19.178;2022-08-24T15:22:05;98875.47;;;28.32;66.76
41102;BME280;26845;50.190;19.178;2022-08-24T15:30:00;98868.41;;;28.52;66.71
41102;BME280;26845;50.190;19.178;2022-08-24T15:32:39;98867.38;;;28.42;66.65
41102;BME280;26845;50.190;19.178;2022-08-24T15:35:25;98860.52;;;28.24;66.51
41102;BME280;26845;50.190;19.178;2022-08-24T15:37:49;98861.36;;;27.86;66.23
41102;BME280;26845;50.190;19.178;2022-08-24T15:40:16;98854.75;;;27.34;66.63
41102;BME280;26845;50.190;19.178;2022-08-24T15:42:54;98861.85;;;26.88;67.01
41102;BME280;26845;50.190;19.178;2022-08-24T15:45:27;98872.47;;;26.50;67.46
41102;BME280;26845;50.190;19.178;2022-08-24T15:47:54;98877.49;;;26.32;68.37
41102;BME280;26845;50.190;19.178;2022-08-24T15:55:30;98877.84;;;26.18;69.35
41102;BME280;26845;50.190;19.178;2022-08-24T16:01:00;98880.71;;;25.89;69.88
41102;BME280;26845;50.190;19.178;2022-08-24T16:04:00;98876.95;;;25.69;70.40
41102;BME280;26845;50.190;19.178;2022-08-24T16:11:37;98881.46;;;25.33;71.68
41102;BME280;26845;50.190;19.178;2022-08-24T16:14:15;98889.02;;;25.21;72.28
41102;BME280;26845;50.190;19.178;2022-08-24T16:16:40;98887.22;;;25.16;72.70
41102;BME280;26845;50.190;19.178;2022-08-24T16:19:16;98880.70;;;25.19;73.11
41102;BME280;26845;50.190;19.178;2022-08-24T16:24:37;98864.58;;;25.34;73.84
41102;BME280;26845;50.190;19.178;2022-08-24T16:27:07;98867.16;;;25.48;74.26
41102;BME280;26845;50.190;19.178;2022-08-24T16:32:09;98867.14;;;25.77;74.19
41102;BME280;26845;50.190;19.178;2022-08-24T16:34:47;98867.28;;;25.89;74.15
41102;BME280;26845;50.190;19.178;2022-08-24T16:37:21;98865.95;;;26.01;74.11
41102;BME280;26845;50.190;19.178;2022-08-24T16:39:49;98874.06;;;26.06;74.07
41102;BME280;26845;50.190;19.178;2022-08-24T16:42:22;98875.22;;;26.12;74.00
41102;BME280;26845;50.190;19.178;2022-08-24T16:44:49;98874.81;;;26.14;73.93
41102;BME280;26845;50.190;19.178;2022-08-24T16:47:18;98874.38;;;26.15;73.68
41102;BME280;26845;50.190;19.178;2022-08-24T16:49:45;98873.20;;;26.13;73.63
41102;BME280;26845;50.190;19.178;2022-08-24T16:52:12;98878.55;;;26.07;73.63
41102;BME280;26845;50.190;19.178;2022-08-24T16:54:38;98872.64;;;26.06;73.62
41102;BME280;26845;50.190;19.178;2022-08-24T16:57:07;98872.67;;;26.02;73.66
41102;BME280;26845;50.190;19.178;2022-08-24T16:59:38;98878.98;;;26.02;73.60
41102;BME280;26845;50.190;19.178;2022-08-24T17:02:05;98869.02;;;26.02;73.62
41102;BME280;26845;50.190;19.178;2022-08-24T17:04:33;98867.38;;;26.01;73.66